createdAt,value
2019-05-23T00:00:58.980Z,9.80
2019-05-23T00:03:52.586Z,9.80
2019-05-23T00:06:42.600Z,10.00
2019-05-23T00:09:31.688Z,10.10
2019-05-23T00:15:32.119Z,10.20
2019-05-23T00:18:04.666Z,10.20
2019-05-23T00:20:35.862Z,10.20
2019-05-23T00:23:07.742Z,10.20
2019-05-23T00:25:40.455Z,10.20
2019-05-23T00:28:12.350Z,10.10
2019-05-23T00:30:44.739Z,10.20
2019-05-23T00:33:23.702Z,10.20
2019-05-23T00:35:55.132Z,10.20
2019-05-23T00:38:26.747Z,10.20
2019-05-23T00:40:58.254Z,10.20
2019-05-23T00:43:29.987Z,10.20
2019-05-23T00:46:00.807Z,10.30
2019-05-23T00:48:31.714Z,10.30
2019-05-23T00:51:05.238Z,10.30
2019-05-23T00:53:37.311Z,10.30
2019-05-23T00:56:09.687Z,10.30
2019-05-23T00:58:41.315Z,10.30
2019-05-23T01:01:11.954Z,10.30
2019-05-23T01:03:43.624Z,10.30
2019-05-23T01:06:15.213Z,10.10
2019-05-23T01:08:46.665Z,10.00
2019-05-23T01:11:18.963Z,9.80
2019-05-23T01:13:50.306Z,9.80
2019-05-23T01:16:24.298Z,9.80
2019-05-23T01:18:55.010Z,9.90
2019-05-23T01:21:39.929Z,10.10
2019-05-23T01:24:30.378Z,10.20
2019-05-23T01:27:02.011Z,10.30
2019-05-23T01:29:37.686Z,10.30
2019-05-23T01:32:27.481Z,10.30
2019-05-23T01:34:58.823Z,10.40
2019-05-23T01:37:30.773Z,10.50
2019-05-23T01:40:02.524Z,10.50
2019-05-23T01:42:34.169Z,10.50
2019-05-23T01:45:06.060Z,10.50
2019-05-23T01:47:36.766Z,10.50
2019-05-23T01:50:10.421Z,10.40
2019-05-23T01:52:42.127Z,10.30
2019-05-23T01:55:13.183Z,10.30
2019-05-23T01:57:44.607Z,10.40
2019-05-23T02:00:17.927Z,10.30
2019-05-23T02:02:49.078Z,10.30
2019-05-23T02:05:21.423Z,10.30
2019-05-23T02:07:52.282Z,10.20
2019-05-23T02:10:24.419Z,10.10
2019-05-23T02:12:55.821Z,10.00
2019-05-23T02:15:27.151Z,9.90
2019-05-23T02:17:58.445Z,9.90
2019-05-23T02:20:29.302Z,9.90
2019-05-23T02:23:00.740Z,9.90
2019-05-23T02:25:32.987Z,9.90
2019-05-23T02:28:04.838Z,10.00
2019-05-23T02:30:36.614Z,10.00
2019-05-23T02:33:10.282Z,9.90
2019-05-23T02:35:41.440Z,10.00
2019-05-23T02:38:32.727Z,10.10
2019-05-23T02:41:21.529Z,10.10
2019-05-23T02:43:54.153Z,10.10
2019-05-23T02:46:29.297Z,10.10
2019-05-23T02:49:03.961Z,10.20
2019-05-23T02:51:37.455Z,10.20
2019-05-23T02:54:12.460Z,10.20
2019-05-23T02:56:44.896Z,10.20
2019-05-23T02:59:33.678Z,10.20
2019-05-23T03:02:30.029Z,10.20
2019-05-23T03:05:02.716Z,10.20
2019-05-23T03:07:35.220Z,10.20
2019-05-23T03:10:08.943Z,10.30
2019-05-23T03:12:43.559Z,10.30
2019-05-23T03:15:16.010Z,10.30
2019-05-23T03:17:49.617Z,10.40
2019-05-23T03:20:21.803Z,10.40
2019-05-23T03:23:12.696Z,10.30
2019-05-23T03:25:46.367Z,10.20
2019-05-23T03:28:18.623Z,10.00
2019-05-23T03:31:25.228Z,10.00
2019-05-23T03:33:29.849Z,10.00
2019-05-23T03:36:01.833Z,10.00
2019-05-23T03:38:33.487Z,10.00
2019-05-23T03:41:05.036Z,10.00
2019-05-23T03:43:36.251Z,10.00
2019-05-23T03:46:23.895Z,9.90
2019-05-23T03:48:56.127Z,9.90
2019-05-23T03:51:26.723Z,9.90
2019-05-23T03:53:58.081Z,9.90
2019-05-23T03:56:30.631Z,9.90
2019-05-23T03:59:01.966Z,9.80
2019-05-23T04:01:47.007Z,9.80
2019-05-23T04:04:07.350Z,9.70
2019-05-23T04:06:38.330Z,9.70
2019-05-23T04:09:10.733Z,9.60
2019-05-23T04:11:41.780Z,9.60
2019-05-23T04:14:12.793Z,9.50
2019-05-23T04:16:44.546Z,9.50
2019-05-23T04:19:16.791Z,9.60
2019-05-23T04:21:47.770Z,9.70
2019-05-23T04:24:18.461Z,9.90
2019-05-23T04:26:49.511Z,9.90
2019-05-23T04:29:20.547Z,10.00
2019-05-23T04:32:06.206Z,10.10
2019-05-23T04:34:23.915Z,10.20
2019-05-23T04:36:54.570Z,10.20
2019-05-23T04:39:25.794Z,10.30
2019-05-23T04:41:56.830Z,10.40
2019-05-23T04:44:27.609Z,10.40
2019-05-23T04:46:59.047Z,10.30
2019-05-23T04:49:30.028Z,10.20
2019-05-23T04:52:00.902Z,10.10
2019-05-23T04:54:31.925Z,10.10
2019-05-23T04:57:04.743Z,10.00
2019-05-23T04:59:35.799Z,10.10
2019-05-23T05:02:23.062Z,10.20
2019-05-23T05:04:39.574Z,10.30
2019-05-23T05:07:10.366Z,10.50
2019-05-23T05:09:41.469Z,10.60
2019-05-23T05:12:12.455Z,10.70
2019-05-23T05:14:43.233Z,10.80
2019-05-23T05:17:14.037Z,10.90
2019-05-23T05:19:45.120Z,10.90
2019-05-23T05:22:16.636Z,11.00
2019-05-23T05:24:47.447Z,11.00
2019-05-23T05:27:19.850Z,11.00
2019-05-23T05:29:50.864Z,11.10
2019-05-23T05:32:22.442Z,11.10
2019-05-23T05:34:52.983Z,11.10
2019-05-23T05:37:23.681Z,11.00
2019-05-23T05:39:54.588Z,11.00
2019-05-23T05:42:25.251Z,11.00
2019-05-23T05:44:56.127Z,11.10
2019-05-23T05:47:27.512Z,11.20
2019-05-23T05:49:59.097Z,11.40
2019-05-23T05:52:30.932Z,11.50
2019-05-23T05:55:01.680Z,11.60
2019-05-23T05:57:32.443Z,11.70
2019-05-23T06:00:04.769Z,11.80
2019-05-23T06:02:35.691Z,11.90
2019-05-23T06:05:09.514Z,12.00
2019-05-23T06:07:41.840Z,12.00
2019-05-23T06:10:14.145Z,12.10
2019-05-23T06:12:45.511Z,12.20
2019-05-23T06:15:17.185Z,12.20
2019-05-23T06:17:48.762Z,12.20
2019-05-23T06:20:19.646Z,12.30
2019-05-23T06:22:52.305Z,12.30
2019-05-23T06:25:23.263Z,12.30
2019-05-23T06:27:54.684Z,12.30
2019-05-23T06:30:26.187Z,12.40
2019-05-23T06:32:57.491Z,12.50
2019-05-23T06:35:29.099Z,12.60
2019-05-23T06:38:01.335Z,12.60
2019-05-23T06:40:32.731Z,12.70
2019-05-23T06:43:03.959Z,12.80
2019-05-23T06:45:35.319Z,12.80
2019-05-23T06:48:06.306Z,12.90
2019-05-23T06:50:37.083Z,13.00
2019-05-23T06:53:08.958Z,13.10
2019-05-23T06:55:39.466Z,13.10
2019-05-23T06:58:10.447Z,13.20
2019-05-23T07:00:42.611Z,13.30
2019-05-23T07:03:13.995Z,13.40
2019-05-23T07:05:44.772Z,13.50
2019-05-23T07:08:15.541Z,13.70
2019-05-23T07:10:46.308Z,13.80
2019-05-23T07:13:17.857Z,13.90
2019-05-23T07:15:48.610Z,14.00
2019-05-23T07:18:19.534Z,14.10
2019-05-23T07:20:50.234Z,14.30
2019-05-23T07:23:21.220Z,14.30
2019-05-23T07:25:52.262Z,14.40
2019-05-23T07:28:22.976Z,14.40
2019-05-23T07:30:54.035Z,14.50
2019-05-23T07:33:24.822Z,14.50
2019-05-23T07:35:56.023Z,14.60
2019-05-23T07:38:26.693Z,14.80
2019-05-23T07:40:58.367Z,14.80
2019-05-23T07:43:29.145Z,14.80
2019-05-23T07:46:00.819Z,14.70
2019-05-23T07:48:32.478Z,14.60
2019-05-23T07:51:03.259Z,14.50
2019-05-23T07:53:35.587Z,14.40
2019-05-23T07:56:08.917Z,14.30
2019-05-23T07:58:40.042Z,14.30
2019-05-23T08:01:15.286Z,14.30
2019-05-23T08:03:48.918Z,14.40
2019-05-23T08:06:20.155Z,14.60
2019-05-23T08:08:51.866Z,14.80
2019-05-23T08:11:22.646Z,15.00
2019-05-23T08:13:55.327Z,15.20
2019-05-23T08:16:26.106Z,15.50
2019-05-23T08:18:56.844Z,15.70
2019-05-23T08:21:27.718Z,16.00
2019-05-23T08:23:58.636Z,16.20
2019-05-23T08:26:30.990Z,16.20
2019-05-23T08:29:24.638Z,16.30
2019-05-23T08:31:34.180Z,16.10
2019-05-23T08:34:06.359Z,16.10
2019-05-23T08:36:37.019Z,16.20
2019-05-23T08:39:10.195Z,16.10
2019-05-23T08:41:41.200Z,15.90
2019-05-23T08:44:12.003Z,15.90
2019-05-23T08:46:42.963Z,16.00
2019-05-23T08:49:14.094Z,16.10
2019-05-23T08:51:45.000Z,16.40
2019-05-23T08:54:15.947Z,16.50
2019-05-23T08:56:47.054Z,16.60
2019-05-23T08:59:18.805Z,16.50
2019-05-23T09:01:49.607Z,16.40
2019-05-23T09:04:20.983Z,16.20
2019-05-23T09:06:52.418Z,16.10
2019-05-23T09:09:29.606Z,16.30
2019-05-23T09:11:57.214Z,16.60
2019-05-23T09:14:28.440Z,16.90
2019-05-23T09:16:59.149Z,17.20
2019-05-23T09:19:29.761Z,17.60
2019-05-23T09:22:00.737Z,17.80
2019-05-23T09:24:31.434Z,17.60
2019-05-23T09:27:02.101Z,17.50
2019-05-23T09:29:32.973Z,17.20
2019-05-23T09:32:04.962Z,17.00
2019-05-23T09:34:35.816Z,16.90
2019-05-23T09:37:08.403Z,17.20
2019-05-23T09:39:40.698Z,17.70
2019-05-23T09:42:12.278Z,18.00
2019-05-23T09:44:43.245Z,18.30
2019-05-23T09:47:13.828Z,18.60
2019-05-23T09:49:53.510Z,18.80
2019-05-23T09:52:17.253Z,19.10
2019-05-23T09:54:48.175Z,19.20
2019-05-23T09:57:18.938Z,19.30
2019-05-23T09:59:50.161Z,19.10
2019-05-23T10:02:20.986Z,19.20
2019-05-23T10:04:52.569Z,19.40
2019-05-23T10:07:23.343Z,19.80
2019-05-23T10:09:54.231Z,19.80
2019-05-23T10:12:24.909Z,20.20
2019-05-23T10:14:55.823Z,20.40
2019-05-23T10:17:26.727Z,20.30
2019-05-23T10:19:57.424Z,20.40
2019-05-23T10:22:28.085Z,20.50
2019-05-23T10:24:58.724Z,20.80
2019-05-23T10:27:29.380Z,21.00
2019-05-23T10:30:00.345Z,21.10
2019-05-23T10:32:31.794Z,20.90
2019-05-23T10:35:02.430Z,21.00
2019-05-23T10:37:33.387Z,21.00
2019-05-23T10:40:05.857Z,21.00
2019-05-23T10:42:38.190Z,20.80
2019-05-23T10:45:09.371Z,20.80
2019-05-23T10:47:40.313Z,20.60
2019-05-23T10:50:11.660Z,20.30
2019-05-23T10:52:42.279Z,20.40
2019-05-23T10:55:13.153Z,20.60
2019-05-23T10:57:44.077Z,20.70
2019-05-23T11:00:16.622Z,20.70
2019-05-23T11:02:47.513Z,20.90
2019-05-23T11:05:18.320Z,21.10
2019-05-23T11:07:49.180Z,21.10
2019-05-23T11:10:21.183Z,21.10
2019-05-23T11:12:52.048Z,21.10
2019-05-23T11:15:23.046Z,20.90
2019-05-23T11:17:54.305Z,20.80
2019-05-23T11:20:26.159Z,20.70
2019-05-23T11:22:56.987Z,20.30
2019-05-23T11:25:28.824Z,20.00
2019-05-23T11:27:59.786Z,19.80
2019-05-23T11:30:32.182Z,20.00
2019-05-23T11:33:03.173Z,20.00
2019-05-23T11:35:34.158Z,20.10
2019-05-23T11:38:05.113Z,20.00
2019-05-23T11:40:35.760Z,20.00
2019-05-23T11:43:06.348Z,19.90
2019-05-23T11:45:47.606Z,19.80
2019-05-23T11:48:18.614Z,19.70
2019-05-23T11:50:49.452Z,19.70
2019-05-23T11:53:20.415Z,19.70
2019-05-23T11:55:54.360Z,19.90
2019-05-23T11:58:24.231Z,19.90
2019-05-23T12:01:03.565Z,19.90
2019-05-23T12:03:34.284Z,19.80
2019-05-23T12:06:06.244Z,20.00
2019-05-23T12:08:37.083Z,20.40
2019-05-23T12:11:07.771Z,20.40
2019-05-23T12:13:38.744Z,20.50
2019-05-23T12:16:10.996Z,20.30
2019-05-23T12:18:42.168Z,19.90
2019-05-23T12:21:13.408Z,19.70
2019-05-23T12:23:44.237Z,19.80
2019-05-23T12:26:15.089Z,20.20
2019-05-23T12:28:46.131Z,20.50
2019-05-23T12:31:18.194Z,20.70
2019-05-23T12:33:48.872Z,20.90
2019-05-23T12:36:20.333Z,20.80
2019-05-23T12:38:51.075Z,20.90
2019-05-23T12:41:23.087Z,21.20
2019-05-23T12:43:53.761Z,21.40
2019-05-23T12:46:24.327Z,21.50
2019-05-23T12:48:59.278Z,21.80
2019-05-23T12:51:44.010Z,22.00
2019-05-23T12:54:15.489Z,22.20
2019-05-23T12:56:48.990Z,22.20
2019-05-23T12:59:20.492Z,22.00
2019-05-23T13:01:52.855Z,21.80
2019-05-23T13:04:23.621Z,21.90
2019-05-23T13:06:55.039Z,22.00
2019-05-23T13:09:25.677Z,22.10
2019-05-23T13:11:56.531Z,22.10
2019-05-23T13:14:27.341Z,22.10
2019-05-23T13:17:00.968Z,22.20
2019-05-23T13:19:31.011Z,22.20
2019-05-23T13:22:02.208Z,22.40
2019-05-23T13:24:51.143Z,22.60
2019-05-23T13:27:05.337Z,22.50
2019-05-23T13:29:36.428Z,22.40
2019-05-23T13:32:08.809Z,22.40
2019-05-23T13:34:39.846Z,22.60
2019-05-23T13:37:16.653Z,22.40
2019-05-23T13:39:44.790Z,22.50
2019-05-23T13:42:15.427Z,22.40
2019-05-23T13:44:46.563Z,22.50
2019-05-23T13:47:17.675Z,22.40
2019-05-23T13:49:48.443Z,22.40
2019-05-23T13:52:19.178Z,22.40
2019-05-23T13:54:50.851Z,22.30
2019-05-23T13:57:21.645Z,22.10
2019-05-23T13:59:52.384Z,22.10
2019-05-23T14:02:22.973Z,22.00
2019-05-23T14:04:54.050Z,22.00
2019-05-23T14:07:26.520Z,21.90
2019-05-23T14:09:57.672Z,21.60
2019-05-23T14:12:29.074Z,21.40
2019-05-23T14:14:59.798Z,21.20
2019-05-23T14:17:33.566Z,21.10
2019-05-23T14:20:05.859Z,21.00
2019-05-23T14:22:38.235Z,20.90
2019-05-23T14:25:09.225Z,20.80
2019-05-23T14:27:44.501Z,20.70
2019-05-23T14:30:20.338Z,20.40
2019-05-23T14:32:52.709Z,20.40
2019-05-23T14:35:24.938Z,20.30
2019-05-23T14:37:57.250Z,20.30
2019-05-23T14:40:27.962Z,20.20
2019-05-23T14:43:15.699Z,20.30
2019-05-23T14:46:03.330Z,20.30
2019-05-23T14:48:54.719Z,20.40
2019-05-23T14:51:42.385Z,20.40
2019-05-23T14:54:14.763Z,20.40
2019-05-23T14:56:46.018Z,20.30
2019-05-23T14:59:16.832Z,20.40
2019-05-23T15:01:47.703Z,20.50
2019-05-23T15:04:18.664Z,20.50
2019-05-23T15:06:49.384Z,20.50
2019-05-23T15:09:21.718Z,20.50
2019-05-23T15:11:52.823Z,20.40
2019-05-23T15:14:23.504Z,20.30
2019-05-23T15:16:54.268Z,20.20
2019-05-23T15:19:39.112Z,20.30
2019-05-23T15:21:57.529Z,20.20
2019-05-23T15:24:29.154Z,20.00
2019-05-23T15:26:59.866Z,19.90
2019-05-23T15:29:30.557Z,19.90
2019-05-23T15:32:03.410Z,20.10
2019-05-23T15:34:35.218Z,20.20
2019-05-23T15:37:06.601Z,20.00
2019-05-23T15:39:37.449Z,20.00
2019-05-23T15:42:08.122Z,20.00
2019-05-23T15:44:38.911Z,19.90
2019-05-23T15:47:09.634Z,19.80
2019-05-23T15:49:41.913Z,19.70
2019-05-23T15:52:17.212Z,19.70
2019-05-23T15:54:55.634Z,19.60
2019-05-23T15:57:30.739Z,19.60
2019-05-23T16:00:15.078Z,19.60
2019-05-23T16:02:47.472Z,19.50
2019-05-23T16:05:19.083Z,19.40
2019-05-23T16:07:50.120Z,19.30
2019-05-23T16:10:21.984Z,19.30
2019-05-23T16:12:52.707Z,19.40
2019-05-23T16:15:24.558Z,19.50
2019-05-23T16:17:55.698Z,19.40
2019-05-23T16:20:27.837Z,19.40
2019-05-23T16:22:58.510Z,19.40
2019-05-23T16:25:29.174Z,19.40
2019-05-23T16:27:59.920Z,19.40
2019-05-23T16:30:31.158Z,19.30
2019-05-23T16:33:01.899Z,19.20
2019-05-23T16:35:32.828Z,19.10
2019-05-23T16:38:03.516Z,19.10
2019-05-23T16:40:34.233Z,19.00
2019-05-23T16:43:05.867Z,18.90
2019-05-23T16:45:36.565Z,18.90
2019-05-23T16:48:07.321Z,19.00
2019-05-23T16:50:38.240Z,19.00
2019-05-23T16:53:09.082Z,18.90
2019-05-23T16:55:41.483Z,18.80
2019-05-23T16:58:13.798Z,18.80
2019-05-23T17:00:48.742Z,18.70
2019-05-23T17:03:21.122Z,18.70
2019-05-23T17:06:08.763Z,18.60
2019-05-23T17:08:47.347Z,18.60
2019-05-23T17:11:35.815Z,18.60
2019-05-23T17:14:17.213Z,18.50
2019-05-23T17:16:49.548Z,18.50
2019-05-23T17:19:26.824Z,18.60
2019-05-23T17:22:01.578Z,18.60
2019-05-23T17:24:33.954Z,18.60
2019-05-23T17:27:06.365Z,18.60
2019-05-23T17:29:41.780Z,18.70
2019-05-23T17:32:14.494Z,18.70
2019-05-23T17:34:47.110Z,18.70
2019-05-23T17:37:19.335Z,18.70
2019-05-23T17:39:53.393Z,18.70
2019-05-23T17:42:24.506Z,18.70
2019-05-23T17:44:55.381Z,18.60
2019-05-23T17:47:26.246Z,18.60
2019-05-23T17:49:56.993Z,18.50
2019-05-23T17:52:27.651Z,18.40
2019-05-23T17:54:58.257Z,18.30
2019-05-23T17:57:29.804Z,18.20
2019-05-23T18:00:00.433Z,18.10
2019-05-23T18:02:31.466Z,18.10
2019-05-23T18:05:03.950Z,18.00
2019-05-23T18:07:38.029Z,18.00
2019-05-23T18:10:10.024Z,17.90
2019-05-23T18:12:40.717Z,17.80
2019-05-23T18:15:13.707Z,17.80
2019-05-23T18:17:44.677Z,17.80
2019-05-23T18:20:16.186Z,17.70
2019-05-23T18:22:46.922Z,17.70
2019-05-23T18:25:17.752Z,17.60
2019-05-23T18:27:48.522Z,17.60
2019-05-23T18:30:29.825Z,17.50
2019-05-23T18:33:02.167Z,17.50
2019-05-23T18:35:33.250Z,17.50
2019-05-23T18:38:04.875Z,17.40
2019-05-23T18:40:35.825Z,17.40
2019-05-23T18:43:06.953Z,17.30
2019-05-23T18:45:39.551Z,17.20
2019-05-23T18:48:11.526Z,17.10
2019-05-23T18:50:42.200Z,17.10
2019-05-23T18:53:12.976Z,17.00
2019-05-23T18:55:44.882Z,16.90
2019-05-23T18:58:19.305Z,16.80
2019-05-23T19:01:16.230Z,16.70
2019-05-23T19:03:46.969Z,16.60
2019-05-23T19:06:17.594Z,16.50
2019-05-23T19:08:48.735Z,16.40
2019-05-23T19:11:21.606Z,16.30
2019-05-23T19:13:52.305Z,16.10
2019-05-23T19:16:23.050Z,16.00
2019-05-23T19:18:54.431Z,15.90
2019-05-23T19:21:28.078Z,15.80
2019-05-23T19:23:59.037Z,15.70
2019-05-23T19:26:30.177Z,15.60
2019-05-23T19:29:01.322Z,15.50
2019-05-23T19:31:32.144Z,15.40
2019-05-23T19:34:03.198Z,15.30
2019-05-23T19:36:34.549Z,15.30
2019-05-23T19:39:06.807Z,15.20
2019-05-23T19:41:38.462Z,15.10
2019-05-23T19:44:09.470Z,15.00
2019-05-23T19:46:41.101Z,15.00
2019-05-23T19:49:13.046Z,14.90
2019-05-23T19:51:44.353Z,14.80
2019-05-23T19:54:16.199Z,14.70
2019-05-23T19:56:47.917Z,14.70
2019-05-23T19:59:20.941Z,14.70
2019-05-23T20:02:06.513Z,14.60
2019-05-23T20:04:38.742Z,14.60
2019-05-23T20:07:09.937Z,14.50
2019-05-23T20:09:40.642Z,14.40
2019-05-23T20:12:12.964Z,14.40
2019-05-23T20:14:44.775Z,14.30
2019-05-23T20:17:16.022Z,14.20
2019-05-23T20:19:50.146Z,14.10
2019-05-23T20:22:18.872Z,14.10
2019-05-23T20:24:49.814Z,14.00
2019-05-23T20:27:20.475Z,14.00
2019-05-23T20:29:51.448Z,14.00
2019-05-23T20:32:22.171Z,14.00
2019-05-23T20:34:52.754Z,13.90
2019-05-23T20:37:26.034Z,13.80
2019-05-23T20:39:56.629Z,13.80
2019-05-23T20:42:27.443Z,13.70
2019-05-23T20:44:58.659Z,13.60
2019-05-23T20:47:29.614Z,13.60
2019-05-23T20:50:00.345Z,13.60
2019-05-23T20:52:31.085Z,13.50
2019-05-23T20:55:01.753Z,13.40
2019-05-23T20:57:32.386Z,13.40
2019-05-23T21:00:05.321Z,13.30
2019-05-23T21:02:37.098Z,13.30
2019-05-23T21:05:07.965Z,13.30
2019-05-23T21:07:38.521Z,13.30
2019-05-23T21:10:10.033Z,13.20
2019-05-23T21:12:40.747Z,13.20
2019-05-23T21:15:11.695Z,13.20
2019-05-23T21:17:42.395Z,13.20
2019-05-23T21:20:13.144Z,13.20
2019-05-23T21:22:44.117Z,13.20
2019-05-23T21:25:14.794Z,13.20
2019-05-23T21:27:45.388Z,13.20
2019-05-23T21:30:15.949Z,13.20
2019-05-23T21:32:46.610Z,13.00
2019-05-23T21:35:17.253Z,13.00
2019-05-23T21:37:47.963Z,12.90
2019-05-23T21:40:33.462Z,12.80
2019-05-23T21:43:05.021Z,12.80
2019-05-23T21:45:35.880Z,12.70
2019-05-23T21:48:06.922Z,12.80
2019-05-23T21:50:37.517Z,12.80
2019-05-23T21:53:08.971Z,12.70
2019-05-23T21:55:43.916Z,12.70
2019-05-23T21:58:15.251Z,12.70
2019-05-23T22:01:08.396Z,12.60
2019-05-23T22:03:54.454Z,12.60
2019-05-23T22:06:43.589Z,12.50
2019-05-23T22:09:15.749Z,12.40
2019-05-23T22:11:46.514Z,12.30
2019-05-23T22:14:17.337Z,12.30
2019-05-23T22:16:48.389Z,12.20
2019-05-23T22:19:21.010Z,12.20
2019-05-23T22:21:51.657Z,12.20
2019-05-23T22:24:22.786Z,12.20
2019-05-23T22:26:53.371Z,12.20
2019-05-23T22:29:24.094Z,12.10
2019-05-23T22:31:56.530Z,12.10
2019-05-23T22:34:29.194Z,12.10
2019-05-23T22:37:00.803Z,12.00
2019-05-23T22:39:31.516Z,12.00
2019-05-23T22:42:02.342Z,12.00
2019-05-23T22:44:32.947Z,11.90
2019-05-23T22:47:03.767Z,11.90
2019-05-23T22:49:34.470Z,11.90
2019-05-23T22:52:05.383Z,11.80
2019-05-23T22:54:36.122Z,11.70
2019-05-23T22:57:06.895Z,11.70
2019-05-23T22:59:37.632Z,11.70
2019-05-23T23:02:09.951Z,11.70
2019-05-23T23:04:40.541Z,11.60
2019-05-23T23:07:11.854Z,11.50
2019-05-23T23:09:42.529Z,11.40
2019-05-23T23:12:13.516Z,11.40
2019-05-23T23:14:45.127Z,11.40
2019-05-23T23:17:16.908Z,11.30
2019-05-23T23:19:47.579Z,11.30
2019-05-23T23:22:18.564Z,11.30
2019-05-23T23:24:49.612Z,11.30
2019-05-23T23:27:20.136Z,11.30
2019-05-23T23:29:50.901Z,11.30
2019-05-23T23:32:21.964Z,11.20
2019-05-23T23:34:52.682Z,11.20
2019-05-23T23:37:23.606Z,11.20
2019-05-23T23:39:54.310Z,11.10
2019-05-23T23:42:24.926Z,11.00
2019-05-23T23:45:13.873Z,10.80
2019-05-23T23:48:02.551Z,10.50
2019-05-23T23:50:51.114Z,10.30
2019-05-23T23:53:39.821Z,10.30
2019-05-23T23:56:28.714Z,10.50
2019-05-23T23:58:58.808Z,10.50
